Time;durP1;ratioP1;P1;durP2;ratioP2;P2;SDS_P1;SDS_P2;PMS_P1;PMS_P2;Temp;Humidity;BMP_temperature;BMP_pressure;BME280_temperature;BME280_humidity;BME280_pressure;Samples;Min_cycle;Max_cycle;Signal;HPM_P1;HPM_P2
2022/03/06 00:00:34;;;;;;;7.18;1.75;;;;;;;-3.17;57.82;99471.22;4995219;28;20559;-57
2022/03/06 00:03:02;;;;;;;5.70;2.00;;;;;;;-3.32;58.56;99470.94;5012999;28;20513;-58
2022/03/06 00:05:30;;;;;;;5.40;2.10;;;;;;;-3.37;58.73;99479.84;4995269;28;20057;-58
2022/03/06 00:07:59;;;;;;;7.47;2.78;;;;;;;-3.42;58.63;99471.59;5020563;28;20128;-57
2022/03/06 00:10:28;;;;;;;7.65;3.35;;;;;;;-3.41;58.85;99473.22;5023927;28;20511;-57
2022/03/06 00:13:02;;;;;;;6.45;2.13;;;;;;;-3.43;58.67;99480.81;5040458;28;20060;-58
2022/03/06 00:15:30;;;;;;;5.53;2.15;;;;;;;-3.50;59.19;99479.31;5033051;28;20548;-58
2022/03/06 00:17:57;;;;;;;5.53;2.60;;;;;;;-3.54;59.52;99478.97;5038336;28;20567;-58
2022/03/06 00:20:24;;;;;;;7.38;2.50;;;;;;;-3.56;58.92;99472.13;5017042;28;20555;-60
2022/03/06 00:22:51;;;;;;;5.25;2.70;;;;;;;-3.56;59.26;99470.22;5032292;28;20497;-59
2022/03/06 00:25:18;;;;;;;5.18;3.13;;;;;;;-3.57;59.37;99468.59;5032185;28;20094;-57
2022/03/06 00:27:45;;;;;;;7.78;2.60;;;;;;;-3.58;59.32;99471.56;5014170;28;20067;-57
2022/03/06 00:30:12;;;;;;;7.50;3.13;;;;;;;-3.62;59.72;99465.75;5036189;28;20041;-59
2022/03/06 00:32:39;;;;;;;7.68;3.03;;;;;;;-3.63;59.26;99469.56;5034906;28;20068;-59
2022/03/06 00:35:07;;;;;;;9.82;2.30;;;;;;;-3.64;59.68;99465.19;5035807;28;20424;-59
2022/03/06 00:37:35;;;;;;;7.30;3.20;;;;;;;-3.69;59.47;99459.66;5035559;28;20135;-59
2022/03/06 00:40:04;;;;;;;5.50;2.55;;;;;;;-3.72;59.52;99462.88;5035666;28;20049;-58
2022/03/06 00:42:31;;;;;;;5.57;2.85;;;;;;;-3.75;59.98;99455.19;5029500;28;20148;-58
2022/03/06 00:44:58;;;;;;;4.35;2.20;;;;;;;-3.79;60.19;99459.47;5035241;28;20060;-59
2022/03/06 00:47:25;;;;;;;7.18;2.80;;;;;;;-3.84;60.42;99456.66;5035343;28;20577;-58
2022/03/06 00:49:52;;;;;;;5.35;2.67;;;;;;;-3.93;60.58;99458.09;5035809;28;20456;-59
2022/03/06 00:52:19;;;;;;;5.00;2.28;;;;;;;-4.00;60.99;99457.41;5043736;28;20077;-58
2022/03/06 00:54:46;;;;;;;6.78;2.67;;;;;;;-4.03;60.80;99457.88;5035450;28;20045;-55
2022/03/06 00:57:14;;;;;;;5.90;2.53;;;;;;;-4.06;60.71;99450.22;5010365;28;20057;-58
2022/03/06 00:59:41;;;;;;;6.10;2.38;;;;;;;-4.06;61.03;99459.19;5017369;28;20045;-59
2022/03/06 01:02:08;;;;;;;7.72;3.15;;;;;;;-4.06;60.83;99458.38;5035967;28;20528;-59
2022/03/06 01:04:35;;;;;;;16.48;3.10;;;;;;;-4.06;60.89;99448.34;5034802;28;20144;-60
2022/03/06 01:07:02;;;;;;;10.10;2.63;;;;;;;-4.04;60.95;99450.81;5035341;28;20056;-57
2022/03/06 01:09:29;;;;;;;8.93;2.75;;;;;;;-4.08;60.90;99444.22;5034654;28;20112;-57
2022/03/06 01:11:57;;;;;;;10.65;2.70;;;;;;;-4.10;60.55;99451.78;5017453;28;20152;-56
2022/03/06 01:14:24;;;;;;;6.50;3.03;;;;;;;-4.10;60.87;99451.78;5034829;28;20073;-59
2022/03/06 01:16:52;;;;;;;6.32;2.40;;;;;;;-4.14;61.75;99440.56;5035679;28;20049;-59
2022/03/06 01:19:19;;;;;;;9.45;2.83;;;;;;;-4.15;60.93;99438.91;5042734;28;20155;-60
2022/03/06 01:21:47;;;;;;;9.00;2.80;;;;;;;-4.14;61.42;99439.75;5035310;28;20049;-57
2022/03/06 01:24:17;;;;;;;7.50;2.65;;;;;;;-4.14;60.48;99440.56;5034398;28;20057;-59
2022/03/06 01:26:44;;;;;;;7.32;2.63;;;;;;;-4.22;60.99;99442.84;5034820;28;20105;-58
2022/03/06 01:29:12;;;;;;;7.53;2.70;;;;;;;-4.27;61.41;99442.72;5047152;28;20103;-59
2022/03/06 01:31:39;;;;;;;8.43;2.53;;;;;;;-4.31;61.19;99438.84;5051526;28;20536;-61
2022/03/06 01:34:06;;;;;;;7.22;2.92;;;;;;;-4.33;61.47;99440.97;5034851;28;20077;-61
2022/03/06 01:36:33;;;;;;;5.72;2.58;;;;;;;-4.39;61.91;99441.91;5034476;28;20137;-61
2022/03/06 01:39:00;;;;;;;9.23;3.17;;;;;;;-4.43;61.73;99441.59;5035342;28;20472;-61
2022/03/06 01:41:27;;;;;;;4.82;2.50;;;;;;;-4.45;62.14;99451.84;5034620;28;20128;-61
2022/03/06 01:43:55;;;;;;;5.13;2.22;;;;;;;-4.54;62.18;99438.88;5034287;28;20056;-69
2022/03/06 01:46:22;;;;;;;7.47;3.08;;;;;;;-4.56;62.00;99443.75;5022458;28;20072;-61
2022/03/06 01:48:49;;;;;;;6.63;2.65;;;;;;;-4.57;62.00;99444.78;5018986;28;20053;-61
2022/03/06 01:51:17;;;;;;;7.28;2.45;;;;;;;-4.61;62.36;99432.75;5034265;28;20060;-61
2022/03/06 01:53:44;;;;;;;6.85;2.47;;;;;;;-4.64;62.37;99431.34;5034428;28;20156;-61
2022/03/06 01:56:12;;;;;;;5.55;2.33;;;;;;;-4.68;62.01;99432.06;5034090;28;20083;-60
2022/03/06 01:58:41;;;;;;;5.85;2.35;;;;;;;-4.60;62.15;99432.53;5016991;28;20080;-61
2022/03/06 02:01:08;;;;;;;6.50;2.78;;;;;;;-4.53;61.97;99440.53;5034101;28;20085;-60
2022/03/06 02:03:35;;;;;;;6.90;2.67;;;;;;;-4.58;62.08;99432.28;5016302;28;20527;-61
2022/03/06 02:06:05;;;;;;;6.88;2.22;;;;;;;-4.53;62.13;99432.41;5024342;28;20160;-60
2022/03/06 02:08:34;;;;;;;7.13;2.63;;;;;;;-4.54;62.07;99428.03;5034822;28;20076;-59
2022/03/06 02:11:01;;;;;;;12.18;1.88;;;;;;;-4.53;61.96;99429.69;5033570;28;20432;-60
2022/03/06 02:13:28;;;;;;;8.00;2.65;;;;;;;-4.52;61.79;99431.34;5016228;28;20041;-57
2022/03/06 02:15:55;;;;;;;6.05;2.42;;;;;;;-4.54;61.88;99422.59;5046450;28;20060;-61
2022/03/06 02:18:23;;;;;;;3.40;1.70;;;;;;;-4.61;62.42;99430.88;5041984;28;20060;-61
2022/03/06 02:20:50;;;;;;;7.40;2.30;;;;;;;-4.67;62.20;99422.84;5028927;28;20045;-62
2022/03/06 02:23:17;;;;;;;5.15;2.35;;;;;;;-4.69;62.58;99420.38;5033914;28;20479;-61
2022/03/06 02:25:44;;;;;;;4.95;1.98;;;;;;;-4.69;62.70;99424.97;5034199;28;20625;-61
2022/03/06 02:28:11;;;;;;;5.53;2.45;;;;;;;-4.65;62.41;99426.97;5033344;28;20053;-60
2022/03/06 02:30:40;;;;;;;6.00;2.45;;;;;;;-4.64;62.97;99411.53;5042743;28;20059;-60
2022/03/06 02:33:11;;;;;;;7.88;2.78;;;;;;;-4.61;62.31;99416.47;5042494;28;20424;-63
2022/03/06 02:35:38;;;;;;;5.75;2.53;;;;;;;-4.57;62.18;99417.63;5033537;28;20128;-63
2022/03/06 02:38:06;;;;;;;6.75;2.83;;;;;;;-4.54;62.21;99415.28;5033610;28;20050;-63
2022/03/06 02:40:39;;;;;;;6.40;3.22;;;;;;;-4.61;62.37;99402.91;5016115;28;20139;-63
2022/03/06 02:43:07;;;;;;;6.95;3.13;;;;;;;-4.56;62.35;99405.75;5033613;28;20111;-63
2022/03/06 02:45:35;;;;;;;12.85;2.35;;;;;;;-4.54;62.06;99411.75;5033769;28;20053;-64
2022/03/06 02:48:02;;;;;;;8.50;3.72;;;;;;;-4.53;62.63;99414.22;5033401;28;20080;-63
2022/03/06 02:50:34;;;;;;;9.43;3.65;;;;;;;-4.50;62.39;99412.94;5016219;28;20508;-63
2022/03/06 02:53:03;;;;;;;8.43;3.90;;;;;;;-4.50;62.27;99407.50;5033162;28;20041;-63
2022/03/06 02:55:30;;;;;;;6.80;3.53;;;;;;;-4.50;62.54;99413.72;5015747;28;20477;-63
2022/03/06 02:57:58;;;;;;;5.60;2.97;;;;;;;-4.52;62.65;99409.63;5033460;28;20081;-63
2022/03/06 03:00:26;;;;;;;8.02;3.60;;;;;;;-4.58;62.75;99402.44;5033503;28;20061;-64
2022/03/06 03:02:53;;;;;;;9.50;3.95;;;;;;;-4.60;62.67;99408.09;5033329;28;20390;-63
2022/03/06 03:05:20;;;;;;;6.25;2.88;;;;;;;-4.59;62.70;99408.94;5041172;28;20055;-63
2022/03/06 03:07:49;;;;;;;7.22;3.25;;;;;;;-4.65;62.87;99396.31;5045509;28;20534;-63
2022/03/06 03:10:25;;;;;;;8.60;3.92;;;;;;;-4.64;62.86;99395.25;5032812;28;20505;-60
2022/03/06 03:12:53;;;;;;;8.30;3.83;;;;;;;-4.65;62.73;99399.03;5040822;28;20041;-60
2022/03/06 03:15:21;;;;;;;7.28;3.33;;;;;;;-4.64;62.88;99395.25;5033131;28;20136;-60
2022/03/06 03:17:48;;;;;;;6.50;3.22;;;;;;;-4.64;62.70;99395.25;5032813;28;20419;-61
2022/03/06 03:20:15;;;;;;;14.30;3.83;;;;;;;-4.63;62.46;99397.72;5040873;28;20059;-60
2022/03/06 03:22:43;;;;;;;7.10;3.20;;;;;;;-4.59;62.55;99403.50;5045574;28;20056;-60
2022/03/06 03:25:11;;;;;;;8.30;3.80;;;;;;;-4.62;62.52;99399.34;5014774;28;20103;-58
2022/03/06 03:27:38;;;;;;;10.65;3.50;;;;;;;-4.61;62.68;99386.63;5033009;28;20041;-59
2022/03/06 03:30:07;;;;;;;6.88;3.65;;;;;;;-4.64;62.67;99384.41;5020238;28;20052;-59
2022/03/06 03:32:35;;;;;;;7.38;3.45;;;;;;;-4.64;62.85;99384.41;5034205;28;20041;-59
2022/03/06 03:35:03;;;;;;;8.23;3.90;;;;;;;-4.64;62.87;99378.97;5032579;28;20463;-59
2022/03/06 03:37:30;;;;;;;14.55;4.20;;;;;;;-4.68;62.73;99364.25;5033274;28;20123;-58
2022/03/06 03:39:57;;;;;;;11.27;2.80;;;;;;;-4.71;63.08;99367.44;5032564;28;20049;-59
2022/03/06 03:42:24;;;;;;;10.35;3.88;;;;;;;-4.78;63.63;99366.72;5033384;28;20081;-58
2022/03/06 03:44:51;;;;;;;7.43;3.42;;;;;;;-4.72;63.22;99365.75;5014715;28;20049;-66
2022/03/06 03:47:18;;;;;;;7.82;3.78;;;;;;;-4.68;62.92;99369.66;5032783;28;20091;-67
2022/03/06 03:49:46;;;;;;;7.55;2.90;;;;;;;-4.68;63.15;99364.25;5032255;28;20143;-66
2022/03/06 03:52:13;;;;;;;7.40;3.25;;;;;;;-4.65;62.48;99366.47;5040730;28;20068;-67
2022/03/06 03:54:40;;;;;;;9.43;3.30;;;;;;;-4.66;62.97;99359.38;5032120;28;20128;-66
2022/03/06 03:57:07;;;;;;;4.55;2.42;;;;;;;-4.69;63.22;99359.84;5032726;28;20107;-66
2022/03/06 03:59:34;;;;;;;7.75;3.67;;;;;;;-4.72;62.84;99358.47;5032171;28;20529;-60
2022/03/06 04:02:01;;;;;;;6.38;2.40;;;;;;;-4.73;63.25;99355.97;5014907;28;20137;-60
2022/03/06 04:04:29;;;;;;;11.30;2.78;;;;;;;-4.75;63.02;99356.22;4998074;28;20064;-64
2022/03/06 04:06:57;;;;;;;7.55;2.65;;;;;;;-4.75;62.78;99363.53;5036748;28;20057;-63
2022/03/06 04:09:24;;;;;;;6.30;2.78;;;;;;;-4.74;62.92;99357.06;5040459;28;20103;-63
2022/03/06 04:11:51;;;;;;;10.85;2.88;;;;;;;-4.72;62.46;99360.34;5036207;28;20128;-64
2022/03/06 04:14:18;;;;;;;8.52;3.67;;;;;;;-4.71;62.81;99351.16;5036478;28;20463;-64
2022/03/06 04:16:45;;;;;;;6.88;3.00;;;;;;;-4.68;62.88;99353.38;5036493;28;20596;-63
2022/03/06 04:19:12;;;;;;;7.65;2.60;;;;;;;-4.67;62.63;99357.75;5036292;28;20042;-64
2022/03/06 04:21:40;;;;;;;6.22;2.55;;;;;;;-4.68;62.70;99358.81;5035946;28;20136;-63
2022/03/06 04:24:07;;;;;;;6.28;2.28;;;;;;;-4.65;62.44;99356.44;5018986;28;20048;-61
2022/03/06 04:26:35;;;;;;;6.70;2.75;;;;;;;-4.66;62.43;99353.94;5035534;28;20063;-61
2022/03/06 04:29:03;;;;;;;6.68;3.08;;;;;;;-4.62;62.51;99350.53;5036210;28;20052;-61
2022/03/06 04:31:30;;;;;;;5.55;2.67;;;;;;;-4.61;62.23;99344.03;5051881;28;20063;-60
2022/03/06 04:33:58;;;;;;;12.70;2.55;;;;;;;-4.61;62.35;99351.34;5040264;28;20057;-61
2022/03/06 04:36:25;;;;;;;12.82;5.00;;;;;;;-4.61;62.08;99345.94;5035688;28;20088;-61
2022/03/06 04:38:52;;;;;;;6.53;2.45;;;;;;;-4.58;62.62;99340.03;5036060;28;20087;-61
2022/03/06 04:41:20;;;;;;;7.80;2.42;;;;;;;-4.56;62.32;99338.69;5043696;28;20420;-62
2022/03/06 04:43:47;;;;;;;5.40;2.55;;;;;;;-4.51;62.10;99337.97;5035955;28;20124;-61
2022/03/06 04:46:14;;;;;;;8.73;2.55;;;;;;;-4.45;61.84;99345.16;5047963;28;20052;-61
2022/03/06 04:48:41;;;;;;;13.15;2.15;;;;;;;-4.44;62.32;99344.91;5035438;28;20583;-61
2022/03/06 04:51:08;;;;;;;13.32;2.60;;;;;;;-4.43;61.91;99340.31;5048526;28;20061;-62
2022/03/06 04:53:36;;;;;;;4.20;1.98;;;;;;;-4.39;61.91;99342.31;5042757;28;20041;-62
2022/03/06 04:56:04;;;;;;;10.80;2.05;;;;;;;-4.41;61.78;99340.91;5044447;28;20045;-62
2022/03/06 04:58:31;;;;;;;5.93;3.28;;;;;;;-4.42;61.69;99328.38;5035340;28;20099;-61
2022/03/06 05:00:59;;;;;;;9.70;2.58;;;;;;;-4.34;61.32;99328.00;5035819;28;20526;-61
2022/03/06 05:03:26;;;;;;;6.00;2.40;;;;;;;-4.21;61.48;99342.13;5035368;28;20062;-61
2022/03/06 05:05:53;;;;;;;8.50;2.80;;;;;;;-4.10;61.95;99332.28;5035437;28;20461;-61
2022/03/06 05:08:20;;;;;;;6.07;2.53;;;;;;;-4.00;60.76;99330.56;5034932;28;20049;-60
2022/03/06 05:10:47;;;;;;;8.95;1.90;;;;;;;-4.00;60.68;99327.03;5027856;28;20151;-59
2022/03/06 05:13:14;;;;;;;9.65;3.25;;;;;;;-3.99;61.05;99324.06;5034946;28;20081;-61
2022/03/06 05:15:41;;;;;;;6.55;3.00;;;;;;;-3.96;60.14;99322.75;5035199;28;20049;-59
2022/03/06 05:18:09;;;;;;;14.82;3.08;;;;;;;-3.86;60.05;99323.75;5034164;28;20538;-59
2022/03/06 05:20:36;;;;;;;5.82;2.47;;;;;;;-3.75;59.71;99313.91;5035238;28;20242;-61
2022/03/06 05:23:03;;;;;;;18.77;3.38;;;;;;;-3.76;59.64;99309.53;5042723;28;20049;-61
2022/03/06 05:25:30;;;;;;;8.57;3.53;;;;;;;-3.66;59.62;99317.84;5035532;28;20137;-62
2022/03/06 05:27:58;;;;;;;7.95;2.95;;;;;;;-3.57;59.56;99313.66;5047265;28;20077;-59
2022/03/06 05:30:25;;;;;;;5.15;2.53;;;;;;;-3.18;58.27;99309.06;5042952;28;20044;-61
2022/03/06 05:32:52;;;;;;;8.55;3.22;;;;;;;-2.34;56.92;99314.81;5047900;28;20493;-60
2022/03/06 05:35:19;;;;;;;35.30;4.53;;;;;;;-0.60;53.13;99304.75;5034752;28;20140;-60
2022/03/06 05:37:46;;;;;;;9.63;3.58;;;;;;;0.33;50.92;99304.50;5034811;28;20061;-62
2022/03/06 05:40:13;;;;;;;5.78;3.03;;;;;;;0.75;50.18;99296.84;5044974;28;20487;-63
2022/03/06 05:42:46;;;;;;;6.97;3.08;;;;;;;0.91;49.71;99295.72;5035568;28;20049;-62
2022/03/06 05:45:13;;;;;;;8.18;3.20;;;;;;;-0.02;51.24;99297.03;5034242;28;20049;-60
2022/03/06 05:47:40;;;;;;;6.53;3.20;;;;;;;0.23;51.20;99296.25;5034573;28;20088;-61
2022/03/06 05:50:08;;;;;;;9.52;3.20;;;;;;;0.14;50.22;99292.41;5033968;28;20085;-60
2022/03/06 05:52:35;;;;;;;11.90;3.00;;;;;;;0.81;50.08;99292.16;5034770;28;20056;-62
2022/03/06 05:55:03;;;;;;;10.32;3.10;;;;;;;2.27;46.72;99282.25;5034072;28;20135;-60
2022/03/06 05:57:30;;;;;;;7.93;3.00;;;;;;;1.67;46.97;99283.44;5034696;28;20088;-60
2022/03/06 05:59:57;;;;;;;6.20;2.75;;;;;;;2.71;46.10;99284.91;5033955;28;20060;-59
2022/03/06 06:02:24;;;;;;;36.70;11.65;;;;;;;4.85;42.32;99277.72;5034700;28;20136;-59
2022/03/06 06:04:51;;;;;;;7.72;3.17;;;;;;;6.80;39.38;99275.53;5033839;28;20500;-60
2022/03/06 06:07:18;;;;;;;9.90;3.55;;;;;;;7.90;37.22;99270.88;5034244;28;20114;-61
2022/03/06 06:09:45;;;;;;;11.52;3.17;;;;;;;7.40;36.74;99267.56;5033587;28;20152;-61
2022/03/06 06:12:12;;;;;;;11.38;3.30;;;;;;;6.73;37.84;99266.03;5033616;28;20147;-60
2022/03/06 06:14:39;;;;;;;8.68;2.78;;;;;;;8.45;34.30;99272.78;5016577;28;20084;-61
2022/03/06 06:17:06;;;;;;;13.95;3.20;;;;;;;9.98;32.59;99270.78;5033932;28;20064;-61
2022/03/06 06:19:33;;;;;;;7.90;3.75;;;;;;;10.95;30.84;99267.44;5033647;28;20472;-58
2022/03/06 06:22:04;;;;;;;20.08;3.08;;;;;;;12.11;29.63;99265.97;5033658;28;20132;-59
2022/03/06 06:24:31;;;;;;;9.95;2.78;;;;;;;12.99;27.91;99263.09;5033766;28;20045;-61
2022/03/06 06:26:59;;;;;;;6.93;2.90;;;;;;;13.79;25.91;99253.31;5033753;28;20092;-62
2022/03/06 06:29:26;;;;;;;5.90;3.05;;;;;;;14.27;25.55;99259.34;5048071;28;20127;-60
2022/03/06 06:31:53;;;;;;;8.52;3.15;;;;;;;14.36;25.44;99261.97;5052040;28;20389;-61
2022/03/06 06:34:20;;;;;;;5.68;3.00;;;;;;;13.99;25.35;99252.25;5036131;28;20053;-61
2022/03/06 06:36:48;;;;;;;7.30;2.90;;;;;;;12.72;25.36;99254.34;5033598;28;20152;-60
2022/03/06 06:39:18;;;;;;;26.02;3.60;;;;;;;11.30;27.03;99251.19;5015832;28;20057;-61
2022/03/06 06:41:45;;;;;;;8.57;2.97;;;;;;;10.52;27.71;99258.66;5033373;28;20590;-60
2022/03/06 06:44:12;;;;;;;7.60;2.90;;;;;;;9.08;29.67;99249.88;5033518;28;20049;-60
2022/03/06 06:46:39;;;;;;;7.63;2.45;;;;;;;7.48;31.00;99252.97;5033337;28;20440;-61
2022/03/06 06:49:06;;;;;;;8.38;2.85;;;;;;;6.10;33.11;99259.81;5033679;28;20053;-61
2022/03/06 06:51:34;;;;;;;4.95;2.15;;;;;;;5.52;33.52;99249.44;5035217;28;20447;-59
2022/03/06 06:54:01;;;;;;;16.63;2.92;;;;;;;4.99;34.78;99245.50;5051481;28;20091;-61
2022/03/06 06:56:28;;;;;;;6.05;2.78;;;;;;;4.55;34.94;99245.16;5045672;28;20056;-59
2022/03/06 06:58:56;;;;;;;3.40;2.10;;;;;;;5.61;33.53;99238.47;5032819;28;20095;-60
2022/03/06 07:01:24;;;;;;;4.97;2.13;;;;;;;6.06;32.04;99242.22;5045660;28;20072;-62
2022/03/06 07:03:51;;;;;;;7.22;2.60;;;;;;;6.43;32.10;99244.69;5032600;28;20394;-61
2022/03/06 07:06:18;;;;;;;5.75;2.50;;;;;;;6.52;32.03;99235.34;5045988;28;20053;-60
2022/03/06 07:08:45;;;;;;;6.43;2.20;;;;;;;5.88;32.54;99243.19;5041006;28;20081;-60
2022/03/06 07:11:12;;;;;;;7.72;2.28;;;;;;;5.95;32.76;99240.84;5033137;28;20100;-66
2022/03/06 07:13:39;;;;;;;7.70;2.85;;;;;;;6.85;31.26;99241.41;5032680;28;20072;-67
2022/03/06 07:16:06;;;;;;;95.90;8.10;;;;;;;8.06;29.83;99236.84;5041473;28;20055;-67
2022/03/06 07:18:33;;;;;;;7.45;2.42;;;;;;;7.41;30.17;99231.28;5040762;28;20509;-67
2022/03/06 07:21:02;;;;;;;10.75;2.00;;;;;;;6.53;30.98;99225.91;5015940;28;20143;-66
2022/03/06 07:23:30;;;;;;;4.95;2.53;;;;;;;6.37;31.39;99227.38;5032633;28;20056;-67
2022/03/06 07:25:57;;;;;;;5.60;2.15;;;;;;;6.95;31.04;99224.53;5033110;28;20061;-67
2022/03/06 07:28:25;;;;;;;7.45;2.20;;;;;;;7.29;31.05;99227.50;5015363;28;20074;-62
2022/03/06 07:30:52;;;;;;;9.43;2.88;;;;;;;8.11;29.67;99220.06;5043322;28;20049;-62
2022/03/06 07:33:18;;;;;;;11.70;2.13;;;;;;;8.06;29.33;99216.63;5040959;28;20060;-61
2022/03/06 07:35:46;;;;;;;10.20;2.17;;;;;;;7.92;29.54;99210.41;5032843;28;20049;-62
2022/03/06 07:38:13;;;;;;;3.67;1.90;;;;;;;7.47;30.03;99212.59;5045512;28;20119;-61
2022/03/06 07:40:40;;;;;;;3.60;2.22;;;;;;;8.09;29.27;99208.50;5034070;28;20045;-62
2022/03/06 07:43:07;;;;;;;5.93;1.85;;;;;;;7.64;29.17;99206.28;5049459;28;20053;-61
2022/03/06 07:45:34;;;;;;;24.10;3.72;;;;;;;6.46;30.28;99213.66;5036745;28;20104;-62
2022/03/06 07:48:03;;;;;;;6.78;2.35;;;;;;;6.58;31.27;99205.63;5036960;28;20053;-60
2022/03/06 07:50:31;;;;;;;13.20;2.13;;;;;;;8.37;29.09;99206.25;5036629;28;20054;-62
2022/03/06 07:52:58;;;;;;;3.55;1.55;;;;;;;9.06;27.64;99194.72;5049162;28;20068;-61
2022/03/06 07:55:25;;;;;;;3.90;1.58;;;;;;;9.12;28.26;99198.94;5045074;28;20079;-61
2022/03/06 07:57:53;;;;;;;8.57;1.88;;;;;;;9.00;27.97;99195.25;5037072;28;20136;-61
2022/03/06 08:00:19;;;;;;;2.83;1.52;;;;;;;8.61;28.57;99187.16;5036662;28;20056;-62
2022/03/06 08:02:46;;;;;;;4.43;1.70;;;;;;;9.54;27.55;99183.28;5019391;28;20377;-62
2022/03/06 08:05:14;;;;;;;6.25;1.90;;;;;;;9.83;26.67;99179.69;5036488;28;20492;-61
2022/03/06 08:07:41;;;;;;;6.63;1.45;;;;;;;8.75;28.16;99191.38;5036793;28;20083;-60
2022/03/06 08:10:08;;;;;;;10.43;2.78;;;;;;;8.52;29.07;99178.84;5035748;28;20052;-62
2022/03/06 08:12:36;;;;;;;8.48;2.80;;;;;;;10.35;27.09;99178.16;5003066;28;20062;-62
2022/03/06 08:15:04;;;;;;;6.43;1.80;;;;;;;11.82;25.63;99180.63;5026340;28;20064;-62
2022/03/06 08:17:31;;;;;;;8.43;2.38;;;;;;;12.73;24.12;99166.63;5044443;28;20423;-61
2022/03/06 08:19:58;;;;;;;5.65;2.22;;;;;;;12.40;24.09;99168.88;5048426;28;20500;-62
2022/03/06 08:22:25;;;;;;;10.55;2.85;;;;;;;12.33;24.35;99160.31;5036006;28;20073;-61
2022/03/06 08:24:54;;;;;;;7.78;2.90;;;;;;;13.05;23.11;99156.38;5048477;28;20053;-61
2022/03/06 08:27:21;;;;;;;6.07;2.35;;;;;;;14.35;21.85;99151.19;5035776;28;20053;-62
2022/03/06 08:29:49;;;;;;;4.03;2.20;;;;;;;14.27;21.74;99141.06;5039317;28;20132;-61
2022/03/06 08:32:16;;;;;;;5.47;2.22;;;;;;;15.24;20.95;99143.38;5043749;28;20053;-61
2022/03/06 08:34:44;;;;;;;3.58;2.28;;;;;;;16.09;20.39;99132.38;5018665;28;20058;-61
2022/03/06 08:37:11;;;;;;;10.73;2.50;;;;;;;17.23;19.65;99125.78;5028722;28;20072;-61
2022/03/06 08:39:38;;;;;;;5.97;3.03;;;;;;;19.06;18.01;99124.97;5003608;28;20474;-61
2022/03/06 08:42:06;;;;;;;5.35;2.05;;;;;;;19.33;17.35;99126.28;5035898;28;20049;-60
2022/03/06 08:44:33;;;;;;;5.70;2.00;;;;;;;17.78;17.95;99118.25;5020515;28;20136;-60
2022/03/06 08:47:00;;;;;;;5.25;2.50;;;;;;;18.54;17.83;99117.16;5035926;28;20072;-61
2022/03/06 08:49:27;;;;;;;4.93;2.30;;;;;;;18.56;17.16;99114.75;5039030;28;20060;-60
2022/03/06 08:51:54;;;;;;;4.72;2.10;;;;;;;19.34;16.90;99110.97;5049395;28;20128;-62
2022/03/06 08:54:21;;;;;;;6.47;2.50;;;;;;;19.24;17.14;99100.44;5039868;28;20132;-60
2022/03/06 08:56:48;;;;;;;8.63;2.55;;;;;;;19.79;16.84;99093.25;5043444;28;20060;-62
2022/03/06 08:59:16;;;;;;;4.03;2.08;;;;;;;20.06;16.29;99084.31;5035436;28;20136;-62
2022/03/06 09:01:43;;;;;;;5.03;2.00;;;;;;;19.08;16.40;99085.09;5035444;28;20045;-61
2022/03/06 09:04:10;;;;;;;8.45;1.70;;;;;;;17.49;17.32;99094.72;5034962;28;20128;-61
2022/03/06 09:06:38;;;;;;;14.25;1.85;;;;;;;16.69;18.22;99088.28;5043233;28;20080;-62
2022/03/06 09:09:05;;;;;;;9.57;2.10;;;;;;;16.89;17.78;99086.91;5034892;28;20041;-62
2022/03/06 09:11:32;;;;;;;3.92;2.00;;;;;;;18.46;16.75;99080.88;5035034;28;20057;-62
2022/03/06 09:13:59;;;;;;;7.45;1.98;;;;;;;20.17;15.38;99074.66;5035156;28;20550;-62
2022/03/06 09:16:26;;;;;;;4.28;2.03;;;;;;;21.97;14.52;99075.19;5035797;28;20136;-61
2022/03/06 09:18:53;;;;;;;34.35;2.50;;;;;;;23.42;13.42;99057.13;5017163;28;20049;-61
2022/03/06 09:21:20;;;;;;;10.80;2.20;;;;;;;23.78;12.84;99049.59;5035576;28;20059;-62
2022/03/06 09:23:47;;;;;;;47.45;5.15;;;;;;;23.69;11.99;99055.03;5034380;28;20068;-63
2022/03/06 09:26:14;;;;;;;13.27;2.28;;;;;;;23.48;12.46;99055.41;5034799;28;20703;-63
2022/03/06 09:28:42;;;;;;;6.45;2.10;;;;;;;23.91;12.24;99050.56;5034824;28;20136;-61
2022/03/06 09:31:09;;;;;;;5.25;2.20;;;;;;;24.29;11.93;99043.38;5038871;28;20103;-60
2022/03/06 09:33:36;;;;;;;13.70;2.22;;;;;;;24.24;12.19;99038.19;5034908;28;20045;-62
2022/03/06 09:36:04;;;;;;;4.03;1.88;;;;;;;23.90;12.03;99032.75;5017701;28;20513;-61
2022/03/06 09:38:31;;;;;;;14.43;2.47;;;;;;;23.49;12.49;99034.28;5045041;28;20128;-61
2022/03/06 09:41:03;;;;;;;6.68;1.77;;;;;;;23.33;12.15;99030.06;5040168;28;20508;-62
2022/03/06 09:43:32;;;;;;;23.08;2.30;;;;;;;23.05;12.32;99039.00;5045990;28;20103;-61
2022/03/06 09:46:05;;;;;;;10.48;1.63;;;;;;;22.35;12.49;99036.28;5035091;28;20057;-61
2022/03/06 09:48:33;;;;;;;4.03;1.30;;;;;;;21.85;12.54;99038.88;5042641;28;20052;-62
2022/03/06 09:51:04;;;;;;;4.13;2.13;;;;;;;20.08;13.20;99023.41;5034955;28;20564;-60
2022/03/06 09:53:32;;;;;;;3.42;1.30;;;;;;;16.43;15.62;99019.78;5046384;28;20503;-61
2022/03/06 09:55:59;;;;;;;4.15;1.92;;;;;;;13.68;18.14;99023.06;5034479;28;20136;-61
2022/03/06 09:58:27;;;;;;;5.88;1.40;;;;;;;11.47;20.14;99019.84;5033886;28;20145;-61
2022/03/06 10:00:54;;;;;;;3.78;1.35;;;;;;;9.81;21.61;99015.28;5033998;28;20424;-62
2022/03/06 10:03:23;;;;;;;12.65;1.75;;;;;;;8.58;23.13;99016.75;5046716;28;20058;-62
2022/03/06 10:05:51;;;;;;;5.53;2.03;;;;;;;7.54;24.94;99021.97;5041771;28;20045;-60
2022/03/06 10:08:25;;;;;;;6.40;1.75;;;;;;;6.65;25.86;99007.81;5047190;28;20095;-61
2022/03/06 10:11:06;;;;;;;6.90;1.23;;;;;;;5.85;27.13;99020.22;5033830;28;20136;-62
2022/03/06 10:13:38;;;;;;;2.05;1.00;;;;;;;5.38;27.82;99005.91;5045939;28;20095;-61
2022/03/06 10:16:17;;;;;;;13.30;1.65;;;;;;;4.95;28.53;99007.44;5034123;28;20524;-60
2022/03/06 10:18:52;;;;;;;4.70;1.48;;;;;;;4.70;28.51;99008.00;5041750;28;20053;-62
2022/03/06 10:21:32;;;;;;;4.28;1.52;;;;;;;4.15;30.06;99002.78;5034393;28;20045;-62
2022/03/06 10:24:06;;;;;;;3.35;1.30;;;;;;;3.68;30.70;99010.19;5033481;28;20050;-62
2022/03/06 10:26:35;;;;;;;4.97;1.40;;;;;;;3.51;30.56;98998.13;5035000;28;20045;-62
2022/03/06 10:29:11;;;;;;;3.58;1.60;;;;;;;3.43;31.31;98996.06;5033536;28;20045;-61
2022/03/06 10:31:54;;;;;;;23.17;2.10;;;;;;;3.28;31.26;98988.88;5046662;28;20645;-60
2022/03/06 10:34:34;;;;;;;2.80;1.10;;;;;;;3.01;31.91;98990.66;5033643;28;20053;-62
2022/03/06 10:37:02;;;;;;;;;;;;;;;3.05;31.88;98978.78;5049420;28;20131;-61
2022/03/06 10:39:32;;;;;;;4.13;1.20;;;;;;;3.16;31.91;98969.28;5039290;28;19935;-65
2022/03/06 10:41:59;;;;;;;3.08;1.33;;;;;;;3.26;31.19;98969.09;5034057;28;20508;-63
2022/03/06 10:44:44;;;;;;;2.13;1.00;;;;;;;3.28;32.00;98961.38;5033181;28;20073;-65
2022/03/06 10:47:16;;;;;;;8.57;1.52;;;;;;;3.19;32.73;98956.88;5041554;28;20053;-60
2022/03/06 10:49:59;;;;;;;4.57;1.10;;;;;;;3.06;32.90;98963.94;5033846;28;20102;-60
2022/03/06 10:52:26;;;;;;;2.17;1.08;;;;;;;3.23;32.86;98946.94;5038725;28;20057;-59
2022/03/06 10:54:56;;;;;;;4.03;1.33;;;;;;;3.04;33.47;98948.84;5047936;28;20084;-59
2022/03/06 10:57:24;;;;;;;12.88;1.17;;;;;;;2.98;33.40;98944.56;5032624;28;20140;-59
2022/03/06 10:59:51;;;;;;;3.90;1.23;;;;;;;2.91;33.83;98949.63;5033150;28;20080;-60
2022/03/06 11:02:20;;;;;;;3.00;1.27;;;;;;;3.04;33.56;98948.84;5033306;28;20134;-60
2022/03/06 11:04:53;;;;;;;8.05;1.45;;;;;;;3.30;33.40;98930.84;5033087;28;20037;-61
2022/03/06 11:07:21;;;;;;;5.97;1.58;;;;;;;3.42;33.27;98928.44;5042467;28;20048;-62
2022/03/06 11:09:50;;;;;;;12.02;1.05;;;;;;;3.43;33.06;98930.91;5036224;28;20112;-61
2022/03/06 11:12:22;;;;;;;2.53;0.90;;;;;;;3.33;33.33;98927.50;5014938;28;20132;-62
2022/03/06 11:14:50;;;;;;;12.15;1.45;;;;;;;3.06;33.55;98922.75;5013006;28;20539;-61
2022/03/06 11:17:17;;;;;;;2.40;0.93;;;;;;;3.04;33.71;98916.72;5032155;28;20064;-62
2022/03/06 11:19:44;;;;;;;3.33;1.50;;;;;;;3.07;33.19;98894.13;5013593;28;20053;-61
2022/03/06 11:22:31;;;;;;;2.35;0.80;;;;;;;2.99;33.76;98902.25;5032016;28;20056;-62
2022/03/06 11:25:05;;;;;;;2.40;1.10;;;;;;;2.77;34.10;98899.28;5013392;28;20053;-60
2022/03/06 11:27:35;;;;;;;3.97;1.30;;;;;;;2.57;34.37;98902.34;5031668;28;20076;-60
2022/03/06 11:30:20;;;;;;;2.43;1.10;;;;;;;2.34;34.70;98900.47;5031047;28;20465;-60
2022/03/06 11:33:07;;;;;;;5.13;1.67;;;;;;;2.31;35.45;98884.59;5031711;28;20056;-61
2022/03/06 11:35:40;;;;;;;5.43;2.33;;;;;;;2.34;35.50;98889.50;5029395;28;20465;-64
2022/03/06 11:38:13;;;;;;;5.93;1.90;;;;;;;2.42;35.45;98878.66;5031671;28;20079;-65